createdAt,value
2023-04-02T00:00:58.768Z,9.30
2023-04-02T00:03:26.217Z,9.30
2023-04-02T00:05:56.052Z,9.40
2023-04-02T00:08:25.826Z,9.60
2023-04-02T00:11:01.061Z,9.40
2023-04-02T00:13:47.271Z,9.30
2023-04-02T00:16:25.094Z,9.10
2023-04-02T00:18:58.206Z,9.00
2023-04-02T00:21:38.235Z,9.00
2023-04-02T00:24:21.909Z,9.20
2023-04-02T00:26:51.634Z,9.50
2023-04-02T00:29:19.782Z,9.50
2023-04-02T00:31:54.746Z,9.60
2023-04-02T00:34:33.726Z,9.70
2023-04-02T00:37:02.080Z,9.70
2023-04-02T00:39:33.262Z,9.70
2023-04-02T00:42:07.232Z,9.60
2023-04-02T00:44:44.123Z,9.50
2023-04-02T00:47:39.132Z,9.60
2023-04-02T00:50:29.215Z,9.50
2023-04-02T00:52:58.761Z,9.50
2023-04-02T00:55:35.945Z,9.40
2023-04-02T00:58:16.402Z,9.40
2023-04-02T01:04:01.615Z,9.30
2023-04-02T01:06:35.022Z,9.30
2023-04-02T01:09:28.867Z,9.40
2023-04-02T01:12:14.173Z,9.40
2023-04-02T01:14:56.335Z,9.50
2023-04-02T01:17:39.831Z,9.50
2023-04-02T01:20:43.856Z,9.60
2023-04-02T01:23:30.140Z,9.30
2023-04-02T01:26:14.669Z,9.30
2023-04-02T01:28:48.385Z,9.30
2023-04-02T01:31:17.259Z,9.30
2023-04-02T01:33:44.690Z,9.40
2023-04-02T01:36:26.556Z,9.40
2023-04-02T01:39:20.748Z,9.40
2023-04-02T01:41:50.320Z,9.40
2023-04-02T01:45:04.473Z,9.30
2023-04-02T01:47:33.444Z,9.10
2023-04-02T01:50:33.635Z,9.20
2023-04-02T01:53:07.699Z,9.10
2023-04-02T01:55:50.020Z,9.20
2023-04-02T01:58:21.755Z,9.30
2023-04-02T02:01:04.290Z,9.50
2023-04-02T02:03:32.768Z,9.50
2023-04-02T02:06:03.380Z,9.30
2023-04-02T02:08:41.110Z,9.10
2023-04-02T02:11:14.989Z,9.10
2023-04-02T02:14:01.538Z,9.20
2023-04-02T02:16:32.059Z,8.90
2023-04-02T02:19:04.607Z,8.80
2023-04-02T02:21:46.007Z,9.00
2023-04-02T02:24:21.869Z,8.90
2023-04-02T02:27:11.313Z,9.10
2023-04-02T02:29:42.129Z,9.20
2023-04-02T02:32:13.092Z,9.30
2023-04-02T02:34:48.879Z,9.30
2023-04-02T02:37:25.010Z,9.30
2023-04-02T02:39:56.613Z,9.30
2023-04-02T02:42:37.565Z,9.40
2023-04-02T02:45:10.535Z,9.40
2023-04-02T02:47:40.894Z,9.20
2023-04-02T02:50:40.273Z,9.20
2023-04-02T02:53:20.644Z,9.20
2023-04-02T02:55:52.411Z,9.20
2023-04-02T02:58:32.858Z,9.30
2023-04-02T03:01:08.411Z,9.30
2023-04-02T03:03:40.656Z,9.20
2023-04-02T03:06:14.671Z,9.30
2023-04-02T03:08:46.624Z,9.10
2023-04-02T03:11:36.133Z,9.20
2023-04-02T03:14:23.751Z,9.10
2023-04-02T03:17:01.087Z,9.10
2023-04-02T03:19:37.948Z,9.00
2023-04-02T03:22:17.758Z,9.00
2023-04-02T03:25:15.119Z,9.00
2023-04-02T03:27:47.445Z,9.00
2023-04-02T03:30:41.285Z,9.00
2023-04-02T03:33:35.290Z,8.90
2023-04-02T03:36:53.920Z,8.40
2023-04-02T03:39:36.760Z,7.90
2023-04-02T03:42:20.728Z,7.90
2023-04-02T03:45:16.706Z,7.90
2023-04-02T03:47:47.908Z,7.70
2023-04-02T03:50:28.764Z,7.60
2023-04-02T03:53:00.517Z,7.70
2023-04-02T03:55:32.806Z,7.90
2023-04-02T03:58:15.708Z,7.90
2023-04-02T04:01:17.714Z,8.10
2023-04-02T04:03:52.955Z,8.20
2023-04-02T04:06:29.077Z,8.30
2023-04-02T04:09:07.037Z,8.10
2023-04-02T04:11:39.178Z,8.10
2023-04-02T04:14:33.827Z,8.20
2023-04-02T04:17:51.544Z,8.30
2023-04-02T04:20:28.456Z,8.30
2023-04-02T04:23:20.130Z,8.30
2023-04-02T04:25:50.715Z,8.00
2023-04-02T04:28:39.100Z,8.10
2023-04-02T04:31:21.327Z,8.20
2023-04-02T04:34:03.274Z,8.30
2023-04-02T04:36:54.777Z,8.20
2023-04-02T04:39:50.888Z,8.20
2023-04-02T04:42:27.771Z,8.20
2023-04-02T04:45:17.265Z,8.30
2023-04-02T04:48:27.961Z,7.80
2023-04-02T04:51:01.817Z,7.80
2023-04-02T04:53:31.515Z,7.90
2023-04-02T04:56:18.197Z,8.10
2023-04-02T04:58:56.051Z,8.20
2023-04-02T05:01:47.871Z,8.30
2023-04-02T05:04:24.979Z,8.30
2023-04-02T05:06:56.965Z,8.10
2023-04-02T05:09:37.964Z,8.20
2023-04-02T05:12:35.641Z,8.40
2023-04-02T05:15:22.280Z,8.40
2023-04-02T05:18:24.884Z,8.50
2023-04-02T05:21:07.457Z,8.60
2023-04-02T05:23:46.239Z,8.70
2023-04-02T05:26:22.316Z,8.70
2023-04-02T05:29:22.465Z,9.00
2023-04-02T05:32:26.399Z,9.10
2023-04-02T05:34:56.305Z,9.10
2023-04-02T05:37:28.654Z,9.00
2023-04-02T05:40:01.126Z,9.10
2023-04-02T05:42:33.546Z,9.10
2023-04-02T05:45:18.314Z,9.30
2023-04-02T05:47:50.154Z,9.40
2023-04-02T05:50:32.897Z,9.50
2023-04-02T05:53:04.612Z,9.70
2023-04-02T05:56:01.865Z,9.70
2023-04-02T05:58:44.760Z,9.80
2023-04-02T06:01:41.403Z,9.90
2023-04-02T06:04:30.094Z,10.00
2023-04-02T06:07:03.734Z,10.10
2023-04-02T06:10:05.550Z,10.00
2023-04-02T06:12:48.560Z,10.10
2023-04-02T06:15:21.675Z,10.20
2023-04-02T06:17:53.600Z,10.40
2023-04-02T06:20:22.588Z,10.60
2023-04-02T06:23:03.809Z,10.70
2023-04-02T06:25:38.317Z,10.80
2023-04-02T06:28:18.154Z,11.00
2023-04-02T06:31:01.410Z,11.10
2023-04-02T06:33:35.781Z,11.30
2023-04-02T06:36:06.925Z,11.40
2023-04-02T06:38:38.066Z,11.60
2023-04-02T06:41:23.775Z,11.70
2023-04-02T06:44:22.514Z,11.90
2023-04-02T06:47:37.716Z,11.90
2023-04-02T06:50:23.719Z,12.00
2023-04-02T06:52:55.632Z,12.00
2023-04-02T06:55:53.023Z,12.20
2023-04-02T06:58:24.790Z,12.40
2023-04-02T07:00:57.399Z,12.60
2023-04-02T07:24:54.090Z,12.90
2023-04-02T07:31:41.833Z,13.00
2023-04-02T07:34:10.414Z,13.10
2023-04-02T07:36:38.571Z,13.10
2023-04-02T07:39:06.749Z,13.30
2023-04-02T07:41:50.518Z,13.40
2023-04-02T07:44:17.816Z,13.60
2023-04-02T07:46:45.074Z,13.90
2023-04-02T07:49:12.454Z,14.00
2023-04-02T07:51:39.752Z,14.10
2023-04-02T07:54:08.825Z,14.10
2023-04-02T07:56:37.013Z,14.10
2023-04-02T07:59:05.086Z,14.10
2023-04-02T08:01:35.688Z,14.20
2023-04-02T08:04:05.720Z,14.20
2023-04-02T08:14:10.182Z,14.00
2023-04-02T08:16:46.197Z,14.10
2023-04-02T08:19:14.983Z,14.20
2023-04-02T08:21:42.582Z,14.10
2023-04-02T08:24:10.161Z,14.40
2023-04-02T08:26:37.959Z,14.70
2023-04-02T08:29:05.241Z,14.90
2023-04-02T08:31:32.973Z,15.10
2023-04-02T08:34:00.422Z,15.20
2023-04-02T08:36:33.489Z,15.40
2023-04-02T08:39:01.357Z,15.50
2023-04-02T08:41:41.865Z,15.80
2023-04-02T08:44:21.618Z,16.00
2023-04-02T08:46:56.287Z,16.10
2023-04-02T08:49:35.239Z,16.30
2023-04-02T08:52:02.670Z,16.40
2023-04-02T08:54:34.342Z,16.50
2023-04-02T08:57:16.462Z,16.60
2023-04-02T08:59:45.414Z,16.70
2023-04-02T09:02:32.101Z,16.90
2023-04-02T09:05:04.131Z,16.60
2023-04-02T09:07:33.995Z,16.80
2023-04-02T09:10:02.568Z,17.00
2023-04-02T09:12:32.269Z,17.00
2023-04-02T09:15:18.750Z,17.10
2023-04-02T09:17:54.069Z,17.30
2023-04-02T09:20:29.849Z,17.50
2023-04-02T09:22:58.457Z,17.60
2023-04-02T09:25:29.028Z,17.90
2023-04-02T09:28:00.688Z,18.10
2023-04-02T09:30:34.133Z,18.30
2023-04-02T09:33:08.083Z,18.40
2023-04-02T09:35:38.442Z,18.60
2023-04-02T09:38:32.897Z,18.70
2023-04-02T09:41:07.583Z,18.90
2023-04-02T09:43:38.235Z,19.00
2023-04-02T09:46:24.124Z,19.20
2023-04-02T09:48:55.849Z,19.30
2023-04-02T09:51:30.148Z,19.40
2023-04-02T09:54:03.689Z,19.70
2023-04-02T09:56:32.539Z,19.90
2023-04-02T09:59:13.901Z,19.90
2023-04-02T10:01:56.924Z,19.80
2023-04-02T10:04:48.655Z,19.90
2023-04-02T10:07:49.038Z,19.70
2023-04-02T10:10:32.151Z,19.70
2023-04-02T10:13:09.096Z,19.80
2023-04-02T10:15:53.433Z,19.80
2023-04-02T10:18:23.658Z,19.10
2023-04-02T10:20:54.632Z,19.30
2023-04-02T10:23:28.994Z,18.80
2023-04-02T10:26:16.612Z,19.30
2023-04-02T10:29:09.987Z,19.60
2023-04-02T10:32:00.303Z,19.70
2023-04-02T10:35:05.158Z,19.70
2023-04-02T10:37:47.571Z,19.10
2023-04-02T10:40:30.986Z,18.90
2023-04-02T10:43:16.741Z,18.20
2023-04-02T10:46:02.981Z,18.10
2023-04-02T10:48:39.652Z,17.70
2023-04-02T10:51:39.448Z,18.00
2023-04-02T10:54:45.167Z,17.90
2023-04-02T10:57:40.128Z,18.10
2023-04-02T11:00:17.026Z,18.20
2023-04-02T11:03:08.345Z,18.80
2023-04-02T11:05:44.624Z,19.30
2023-04-02T11:08:26.394Z,19.80
2023-04-02T11:11:04.762Z,19.60
2023-04-02T11:13:51.995Z,19.30
2023-04-02T11:16:19.898Z,19.30
2023-04-02T11:19:15.180Z,19.40
2023-04-02T11:21:57.395Z,19.40
2023-04-02T11:24:42.957Z,19.60
2023-04-02T11:27:20.835Z,20.00
2023-04-02T11:29:50.127Z,20.20
2023-04-02T11:32:28.234Z,20.50
2023-04-02T11:35:05.176Z,20.40
2023-04-02T11:37:43.375Z,20.50
2023-04-02T11:40:14.515Z,19.90
2023-04-02T11:42:45.300Z,20.50
2023-04-02T11:45:22.047Z,20.90
2023-04-02T11:48:04.127Z,21.30
2023-04-02T11:50:43.758Z,21.80
2023-04-02T11:53:11.669Z,21.90
2023-04-02T11:56:01.736Z,21.60
2023-04-02T11:58:38.885Z,21.80
2023-04-02T12:01:13.419Z,21.70
2023-04-02T12:03:50.424Z,21.70
2023-04-02T12:06:48.375Z,22.10
2023-04-02T12:09:25.954Z,22.30
2023-04-02T12:11:57.344Z,22.40
2023-04-02T12:14:31.264Z,21.80
2023-04-02T12:17:02.474Z,21.40
2023-04-02T12:19:32.198Z,21.40
2023-04-02T12:21:59.956Z,21.80
2023-04-02T12:24:31.818Z,22.00
2023-04-02T12:27:15.180Z,21.20
2023-04-02T12:29:42.786Z,21.00
2023-04-02T12:32:40.247Z,21.30
2023-04-02T12:35:26.441Z,21.50
2023-04-02T12:37:54.819Z,21.90
2023-04-02T12:40:22.122Z,22.00
2023-04-02T12:42:49.704Z,22.10
2023-04-02T12:45:35.391Z,22.20
2023-04-02T12:48:06.350Z,22.10
2023-04-02T12:50:35.890Z,22.10
2023-04-02T12:53:03.609Z,21.60
2023-04-02T12:55:32.028Z,21.10
2023-04-02T12:58:00.325Z,21.10
2023-04-02T13:00:35.530Z,21.20
2023-04-02T13:03:27.189Z,21.80
2023-04-02T13:05:57.699Z,22.30
2023-04-02T13:08:43.888Z,22.50
2023-04-02T13:11:11.606Z,22.50
2023-04-02T13:13:46.111Z,22.40
2023-04-02T13:16:19.457Z,22.40
2023-04-02T13:18:49.200Z,22.80
2023-04-02T13:21:28.688Z,22.90
2023-04-02T13:23:56.561Z,22.80
2023-04-02T13:26:29.808Z,22.60
2023-04-02T13:29:22.350Z,22.60
2023-04-02T13:31:50.960Z,22.60
2023-04-02T13:34:19.014Z,22.70
2023-04-02T13:36:47.327Z,22.60
2023-04-02T13:39:15.537Z,22.70
2023-04-02T13:41:47.403Z,22.70
2023-04-02T13:44:28.945Z,22.70
2023-04-02T13:46:57.792Z,22.70
2023-04-02T13:49:25.919Z,22.50
2023-04-02T13:51:59.218Z,22.20
2023-04-02T13:54:41.894Z,21.60
2023-04-02T13:57:09.365Z,21.00
2023-04-02T13:59:37.248Z,20.60
2023-04-02T14:02:18.292Z,20.20
2023-04-02T14:04:51.013Z,19.80
2023-04-02T14:07:31.199Z,19.40
2023-04-02T14:10:13.826Z,19.00
2023-04-02T14:12:47.016Z,18.80
2023-04-02T14:15:53.130Z,18.50
2023-04-02T14:19:01.707Z,18.40
2023-04-02T14:22:00.279Z,18.20
2023-04-02T14:24:28.325Z,18.10
2023-04-02T14:27:04.294Z,17.90
2023-04-02T14:29:35.694Z,17.80
2023-04-02T14:32:02.897Z,17.80
2023-04-02T14:34:55.056Z,17.70
2023-04-02T14:37:41.945Z,17.80
2023-04-02T14:40:39.569Z,17.50
2023-04-02T14:43:13.620Z,17.20
2023-04-02T14:45:52.853Z,17.00
2023-04-02T14:48:24.941Z,16.80
2023-04-02T14:51:02.496Z,16.60
2023-04-02T14:53:51.745Z,16.70
2023-04-02T14:56:22.132Z,16.50
2023-04-02T14:59:03.555Z,16.10
2023-04-02T15:01:45.024Z,15.70
2023-04-02T15:04:20.591Z,15.50
2023-04-02T15:06:56.723Z,15.30
2023-04-02T15:09:32.867Z,15.20
2023-04-02T15:12:22.034Z,15.20
2023-04-02T15:15:09.082Z,15.10
2023-04-02T15:17:39.947Z,15.10
2023-04-02T15:20:18.942Z,15.10
2023-04-02T15:22:58.551Z,15.00
2023-04-02T15:26:04.320Z,15.00
2023-04-02T15:28:43.973Z,15.00
2023-04-02T15:31:15.622Z,14.90
2023-04-02T15:33:52.247Z,15.00
2023-04-02T15:36:32.985Z,15.10
2023-04-02T15:39:13.472Z,15.20
2023-04-02T15:41:57.631Z,15.30
2023-04-02T15:44:25.527Z,15.40
2023-04-02T15:47:15.788Z,15.50
2023-04-02T15:49:51.984Z,15.60
2023-04-02T15:52:37.547Z,15.80
2023-04-02T15:55:38.688Z,15.70
2023-04-02T15:58:22.409Z,15.70
2023-04-02T16:01:20.223Z,15.70
2023-04-02T16:04:18.866Z,15.70
2023-04-02T16:07:10.262Z,15.80
2023-04-02T16:09:49.713Z,15.70
2023-04-02T16:12:20.732Z,15.70
2023-04-02T16:14:50.436Z,15.70
2023-04-02T16:17:36.220Z,15.80
2023-04-02T16:20:24.541Z,15.70
2023-04-02T16:23:17.736Z,15.70
2023-04-02T16:26:03.613Z,15.70
2023-04-02T16:28:43.002Z,15.70
2023-04-02T16:31:19.843Z,15.70
2023-04-02T16:34:08.253Z,15.90
2023-04-02T16:36:47.969Z,15.80
2023-04-02T16:39:26.172Z,15.80
2023-04-02T16:42:16.866Z,15.70
2023-04-02T16:45:05.179Z,15.70
2023-04-02T16:48:08.691Z,15.70
2023-04-02T16:50:43.392Z,15.80
2023-04-02T16:53:54.493Z,15.70
2023-04-02T16:57:14.611Z,15.70
2023-04-02T17:00:10.633Z,15.70
2023-04-02T17:02:46.960Z,15.80
2023-04-02T17:05:56.013Z,15.80
2023-04-02T17:08:41.643Z,15.80
2023-04-02T17:11:14.747Z,15.80
2023-04-02T17:13:46.125Z,15.90
2023-04-02T17:16:20.250Z,15.80
2023-04-02T17:18:58.159Z,15.80
2023-04-02T17:21:27.831Z,15.70
2023-04-02T17:24:06.295Z,15.70
2023-04-02T17:26:37.036Z,15.70
2023-04-02T17:29:09.392Z,15.80
2023-04-02T17:31:38.422Z,15.70
2023-04-02T17:34:18.209Z,15.70
2023-04-02T17:37:04.021Z,15.70
2023-04-02T17:39:42.748Z,15.70
2023-04-02T17:42:35.148Z,15.70
2023-04-02T17:45:20.966Z,15.70
2023-04-02T17:47:56.788Z,15.70
2023-04-02T17:51:00.612Z,15.70
2023-04-02T17:53:38.739Z,15.70
2023-04-02T17:56:17.801Z,15.70
2023-04-02T17:58:56.742Z,15.70
2023-04-02T18:01:47.062Z,15.70
2023-04-02T18:04:36.608Z,15.70
2023-04-02T18:07:32.277Z,15.60
2023-04-02T18:10:20.216Z,15.60
2023-04-02T18:12:58.343Z,15.70
2023-04-02T18:15:41.952Z,15.50
2023-04-02T18:18:19.280Z,15.50
2023-04-02T18:21:15.854Z,15.50
2023-04-02T18:24:07.470Z,15.40
2023-04-02T18:27:12.312Z,15.40
2023-04-02T18:30:02.500Z,15.30
2023-04-02T18:33:07.298Z,15.30
2023-04-02T18:36:12.574Z,15.30
2023-04-02T18:39:20.618Z,15.10
2023-04-02T18:42:23.218Z,15.20
2023-04-02T18:45:04.474Z,15.10
2023-04-02T18:47:45.799Z,15.10
2023-04-02T18:50:25.939Z,15.10
2023-04-02T18:52:53.872Z,15.10
2023-04-02T18:55:32.480Z,15.10
2023-04-02T18:58:10.247Z,15.10
2023-04-02T19:00:47.706Z,15.10
2023-04-02T19:03:38.518Z,15.00
2023-04-02T19:06:19.410Z,15.00
2023-04-02T19:08:57.663Z,14.90
2023-04-02T19:11:31.816Z,14.70
2023-04-02T19:14:01.891Z,14.70
2023-04-02T19:16:35.597Z,14.70
2023-04-02T19:19:11.903Z,14.70
2023-04-02T19:21:53.575Z,14.80
2023-04-02T19:24:53.030Z,14.70
2023-04-02T19:27:58.199Z,14.60
2023-04-02T19:30:54.285Z,14.60
2023-04-02T19:33:53.737Z,14.60
2023-04-02T19:36:55.290Z,14.50
2023-04-02T19:39:51.453Z,14.60
2023-04-02T19:42:45.780Z,14.40
2023-04-02T19:45:40.963Z,14.50
2023-04-02T19:48:20.453Z,14.40
2023-04-02T19:50:49.536Z,14.40
2023-04-02T19:53:17.718Z,14.40
2023-04-02T19:55:46.681Z,14.40
2023-04-02T19:58:28.128Z,14.40
2023-04-02T20:00:58.749Z,14.30
2023-04-02T20:03:26.924Z,14.40
2023-04-02T20:05:55.179Z,14.30
2023-04-02T20:08:22.965Z,14.30
2023-04-02T20:10:50.631Z,14.30
2023-04-02T20:13:24.522Z,14.30
2023-04-02T20:15:55.712Z,14.20
2023-04-02T20:18:23.815Z,14.20
2023-04-02T20:20:51.314Z,14.30
2023-04-02T20:23:19.065Z,14.30
2023-04-02T20:25:53.357Z,14.20
2023-04-02T20:28:26.108Z,14.10
2023-04-02T20:31:05.264Z,14.20
2023-04-02T20:33:32.735Z,14.20
2023-04-02T20:36:06.662Z,14.20
2023-04-02T20:38:35.442Z,14.20
2023-04-02T20:41:06.082Z,13.90
2023-04-02T20:43:34.576Z,13.70
2023-04-02T20:46:05.748Z,13.60
2023-04-02T20:48:36.499Z,13.70
2023-04-02T20:51:05.969Z,13.70
2023-04-02T20:53:36.473Z,13.70
2023-04-02T20:56:07.160Z,13.80
2023-04-02T20:58:37.644Z,13.60
2023-04-02T21:01:24.071Z,13.60
2023-04-02T21:03:57.237Z,13.60
2023-04-02T21:06:26.297Z,13.60
2023-04-02T21:08:53.803Z,13.50
2023-04-02T21:11:22.893Z,13.50
2023-04-02T21:13:51.073Z,13.50
2023-04-02T21:16:32.088Z,13.50
2023-04-02T21:19:05.738Z,13.60
2023-04-02T21:21:35.894Z,13.70
2023-04-02T21:24:06.186Z,13.60
2023-04-02T21:26:36.721Z,13.50
2023-04-02T21:29:04.495Z,13.50
2023-04-02T21:31:36.648Z,13.50
2023-04-02T21:34:05.477Z,13.50
2023-04-02T21:36:40.218Z,13.40
2023-04-02T21:39:20.007Z,13.20
2023-04-02T21:41:52.127Z,13.00
2023-04-02T21:44:23.807Z,13.10
2023-04-02T21:46:54.088Z,12.90
2023-04-02T21:49:23.487Z,12.80
2023-04-02T21:51:54.903Z,13.00
2023-04-02T21:54:22.514Z,12.80
2023-04-02T21:56:50.261Z,12.80
2023-04-02T21:59:18.857Z,12.80
2023-04-02T22:01:49.110Z,12.80
2023-04-02T22:04:23.053Z,12.80
2023-04-02T22:06:52.354Z,12.70
2023-04-02T22:09:22.996Z,12.60
2023-04-02T22:11:56.999Z,12.50
2023-04-02T22:14:25.007Z,12.20
2023-04-02T22:16:52.367Z,12.30
2023-04-02T22:19:19.795Z,12.30
2023-04-02T22:21:47.958Z,12.30
2023-04-02T22:24:22.589Z,12.30
2023-04-02T22:26:50.265Z,12.60
2023-04-02T22:29:18.252Z,12.30
2023-04-02T22:31:46.354Z,11.90
2023-04-02T22:34:14.122Z,11.80
2023-04-02T22:36:42.200Z,11.90
2023-04-02T22:39:12.535Z,11.90
2023-04-02T22:41:40.099Z,12.10
2023-04-02T22:44:07.443Z,11.90
2023-04-02T22:46:35.719Z,12.00
2023-04-02T22:49:03.476Z,12.00
2023-04-02T22:51:31.244Z,12.00
2023-04-02T22:53:58.872Z,11.90
2023-04-02T22:56:32.390Z,11.80
2023-04-02T22:58:59.886Z,11.60
2023-04-02T23:01:33.865Z,11.20
2023-04-02T23:04:01.564Z,11.10
2023-04-02T23:06:29.626Z,11.20
2023-04-02T23:08:57.273Z,11.40
2023-04-02T23:11:27.652Z,11.50
2023-04-02T23:13:59.628Z,11.60
2023-04-02T23:16:28.558Z,11.60
2023-04-02T23:18:57.345Z,11.70
2023-04-02T23:21:26.310Z,11.80
2023-04-02T23:23:54.102Z,11.70
2023-04-02T23:26:27.559Z,11.80
2023-04-02T23:28:55.447Z,11.80
2023-04-02T23:31:23.913Z,11.70
2023-04-02T23:33:52.465Z,11.60
2023-04-02T23:36:29.320Z,11.60
2023-04-02T23:39:01.611Z,11.70
2023-04-02T23:41:30.864Z,11.70
2023-04-02T23:43:59.354Z,11.60
2023-04-02T23:46:27.920Z,11.60
2023-04-02T23:48:56.125Z,11.60
2023-04-02T23:51:24.392Z,11.70
2023-04-02T23:53:52.777Z,11.80
2023-04-02T23:56:20.905Z,11.70
2023-04-02T23:58:49.023Z,11.70
